Costa Fortuna — IBNY — position and weather

sailwx.info

Track history (hours):
 
Tides and Currents Weather Stations Pressure Air Temp Water Temp Dewpoint Dewpoint Depression Visibility Wind Speed Wind Dir Waves Ship Positions

Costa Fortuna

Last reported at 2017-May-24 21:48 UTC. Time now 2017-May-25 10:36 UTC.
Position N 37°51' E 122°25'.

Length 272 m; draft 8.3 m.

Type: Ship. MMSI: 247094800.

Date/timePositionNaut miles runAvg speedWind from/ knotsBaromVisibWave heightAir tempDewpointWater temp
2017-May-24 21:48N 37°51' E 122°25'819.9
2017-May-24 21:25N 37°54' E 122°17'820.1
2017-May-24 21:01N 37°58' E 122°08'1020.5
2017-May-24 20:31N 38°04' E 121°56'1020.6
2017-May-24 20:00N 38°08' E 121°45'1020.9
2017-May-24 19:31N 38°14' E 121°34'1121.2
2017-May-24 19:00N 38°20' E 121°23'1121.2
2017-May-24 18:31N 38°25' E 121°11'918.7
2017-May-24 18:00N 38°30' E 121°00'713.9
2017-May-24 17:28N 38°32' E 120°51'612.3
2017-May-24 17:00N 38°33' E 120°44'919.4
2017-May-24 16:30N 38°34' E 120°32'1019.7
2017-May-24 16:00N 38°36' E 120°20'1019.3
2017-May-24 15:30N 38°37' E 120°07'1019.1
2017-May-24 15:00N 38°38' E 119°55'100 8.2
2017-May-24 02:49N 38°59' E 117°49'0 0.0
2017-May-24 01:25N 38°59' E 117°49'0 0.0
2017-May-24 00:37N 38°59' E 117°49'0 0.0
2017-May-24 00:28N 38°59' E 117°49'1 2.1
2017-May-24 00:00N 38°58' E 117°50'612.3
2017-May-23 23:30N 38°57' E 117°58'611.0
2017-May-23 23:00N 38°56' E 118°05'815.1
2017-May-23 22:30N 38°53' E 118°14'815.5
2017-May-23 22:00N 38°52' E 118°24'816.1
2017-May-23 21:30N 38°51' E 118°34'816.1
2017-May-23 21:00N 38°50' E 118°44'816.3
2017-May-23 20:30N 38°50' E 118°54'816.4
2017-May-23 20:01N 38°50' E 119°05'816.5
2017-May-23 19:30N 38°49' E 119°16'816.4
2017-May-23 19:01N 38°48' E 119°26'816.3
2017-May-23 18:30N 38°46' E 119°36'816.5
2017-May-23 18:00N 38°45' E 119°47'816.7
2017-May-23 17:30N 38°44' E 119°57'916.8
2017-May-23 16:59N 38°42' E 120°08'1417.2
2017-May-23 16:09N 38°40' E 120°26'417.9
2017-May-23 15:57N 38°39' E 120°31'1316.0
2017-May-23 15:09N 38°37' E 120°47'210.6
2017-May-23 14:58N 38°37' E 120°49'510.7
2017-May-23 14:30N 38°36' E 120°56'1616.2
2017-May-23 13:31N 38°28' E 121°14'918.1
2017-May-23 13:01N 38°23' E 121°23'1019.4
2017-May-23 12:30N 38°18' E 121°34'1019.2
2017-May-23 12:01N 38°14' E 121°45'1019.4
2017-May-23 11:31N 38°09' E 121°56'1019.5
2017-May-23 11:00N 38°04' E 122°06'1019.5
2017-May-23 10:30N 37°59' E 122°17'1019.8
2017-May-23 10:01N 37°54' E 122°28'1019.9
2017-May-23 09:30N 37°49' E 122°39'1920.2
2017-May-23 08:35N 37°39' E 122°59'221.6
2017-May-23 08:30N 37°39' E 123°01'  
2017-May-20 02:14N 36°50' E 123°36'519.9
2017-May-20 02:01N 36°54' E 123°33'1619.8
2017-May-20 01:13N 37°08' E 123°24'519.9
2017-May-20 00:56N 37°13' E 123°21'919.9
2017-May-20 00:30N 37°21' E 123°16'1119.7
2017-May-19 23:58N 37°29' E 123°09'1220.5
2017-May-19 23:23N 37°36' E 122°56'820.7
2017-May-19 23:00N 37°40' E 122°47'1020.5
2017-May-19 22:31N 37°44' E 122°36'1020.5
2017-May-19 22:01N 37°49' E 122°24'1020.5
2017-May-19 21:31N 37°56' E 122°14'1020.3
2017-May-19 21:01N 38°01' E 122°03'1020.2
2017-May-19 20:31N 38°06' E 121°52'1020.2
2017-May-19 20:00N 38°11' E 121°41'1020.7
2017-May-19 19:31N 38°16' E 121°29'1020.9
2017-May-19 19:01N 38°21' E 121°18'1020.3
2017-May-19 18:31N 38°27' E 121°07'1415.6
2017-May-19 17:37N 38°33' E 120°51'110.8
2017-May-19 17:30N 38°33' E 120°50'812.6
2017-May-19 16:51N 38°35' E 120°39'719.7
2017-May-19 16:30N 38°36' E 120°31'1020.2
2017-May-19 16:00N 38°37' E 120°18'1020.2
2017-May-19 15:30N 38°38' E 120°05'1020.1
2017-May-19 15:00N 38°39' E 119°52'1020.1
2017-May-19 14:30N 38°40' E 119°39'71 2.8
2017-May-18 12:56N 38°31' E 121°09'817.6
2017-May-18 12:28N 38°28' E 121°19'817.7
2017-May-18 12:00N 38°23' E 121°28'  
Track history (hours):
 
Tides and Currents Weather Stations Pressure Air Temp Water Temp Dewpoint Dewpoint Depression Visibility Wind Speed Wind Dir Waves Ship Positions

Costa Fortuna

Last reported at 2017-May-24 21:48 UTC. Time now 2017-May-25 10:36 UTC.
Position N 37°51' E 122°25'.

Length 272 m; draft 8.3 m.

Type: Ship. MMSI: 247094800.

Date/timePositionNaut miles runAvg speedWind from/ knotsBaromVisibWave heightAir tempDewpointWater temp
2017-May-24 21:48N 37°51' E 122°25'819.9
2017-May-24 21:25N 37°54' E 122°17'820.1
2017-May-24 21:01N 37°58' E 122°08'1020.5
2017-May-24 20:31N 38°04' E 121°56'1020.6
2017-May-24 20:00N 38°08' E 121°45'1020.9
2017-May-24 19:31N 38°14' E 121°34'1121.2
2017-May-24 19:00N 38°20' E 121°23'1121.2
2017-May-24 18:31N 38°25' E 121°11'918.7
2017-May-24 18:00N 38°30' E 121°00'713.9
2017-May-24 17:28N 38°32' E 120°51'612.3
2017-May-24 17:00N 38°33' E 120°44'919.4
2017-May-24 16:30N 38°34' E 120°32'1019.7
2017-May-24 16:00N 38°36' E 120°20'1019.3
2017-May-24 15:30N 38°37' E 120°07'1019.1
2017-May-24 15:00N 38°38' E 119°55'100 8.2
2017-May-24 02:49N 38°59' E 117°49'0 0.0
2017-May-24 01:25N 38°59' E 117°49'0 0.0
2017-May-24 00:37N 38°59' E 117°49'0 0.0
2017-May-24 00:28N 38°59' E 117°49'1 2.1
2017-May-24 00:00N 38°58' E 117°50'612.3
2017-May-23 23:30N 38°57' E 117°58'611.0
2017-May-23 23:00N 38°56' E 118°05'815.1
2017-May-23 22:30N 38°53' E 118°14'815.5
2017-May-23 22:00N 38°52' E 118°24'816.1
2017-May-23 21:30N 38°51' E 118°34'816.1
2017-May-23 21:00N 38°50' E 118°44'816.3
2017-May-23 20:30N 38°50' E 118°54'816.4
2017-May-23 20:01N 38°50' E 119°05'816.5
2017-May-23 19:30N 38°49' E 119°16'816.4
2017-May-23 19:01N 38°48' E 119°26'816.3
2017-May-23 18:30N 38°46' E 119°36'816.5
2017-May-23 18:00N 38°45' E 119°47'816.7
2017-May-23 17:30N 38°44' E 119°57'916.8
2017-May-23 16:59N 38°42' E 120°08'1417.2
2017-May-23 16:09N 38°40' E 120°26'417.9
2017-May-23 15:57N 38°39' E 120°31'1316.0
2017-May-23 15:09N 38°37' E 120°47'210.6
2017-May-23 14:58N 38°37' E 120°49'510.7
2017-May-23 14:30N 38°36' E 120°56'1616.2
2017-May-23 13:31N 38°28' E 121°14'918.1
2017-May-23 13:01N 38°23' E 121°23'1019.4
2017-May-23 12:30N 38°18' E 121°34'1019.2
2017-May-23 12:01N 38°14' E 121°45'1019.4
2017-May-23 11:31N 38°09' E 121°56'1019.5
2017-May-23 11:00N 38°04' E 122°06'1019.5
2017-May-23 10:30N 37°59' E 122°17'1019.8
2017-May-23 10:01N 37°54' E 122°28'1019.9
2017-May-23 09:30N 37°49' E 122°39'1920.2
2017-May-23 08:35N 37°39' E 122°59'221.6
2017-May-23 08:30N 37°39' E 123°01'  
2017-May-20 02:14N 36°50' E 123°36'519.9
2017-May-20 02:01N 36°54' E 123°33'1619.8
2017-May-20 01:13N 37°08' E 123°24'519.9
2017-May-20 00:56N 37°13' E 123°21'919.9
2017-May-20 00:30N 37°21' E 123°16'1119.7
2017-May-19 23:58N 37°29' E 123°09'1220.5
2017-May-19 23:23N 37°36' E 122°56'820.7
2017-May-19 23:00N 37°40' E 122°47'1020.5
2017-May-19 22:31N 37°44' E 122°36'1020.5
2017-May-19 22:01N 37°49' E 122°24'1020.5
2017-May-19 21:31N 37°56' E 122°14'1020.3
2017-May-19 21:01N 38°01' E 122°03'1020.2
2017-May-19 20:31N 38°06' E 121°52'1020.2
2017-May-19 20:00N 38°11' E 121°41'1020.7
2017-May-19 19:31N 38°16' E 121°29'1020.9
2017-May-19 19:01N 38°21' E 121°18'1020.3
2017-May-19 18:31N 38°27' E 121°07'1415.6
2017-May-19 17:37N 38°33' E 120°51'110.8
2017-May-19 17:30N 38°33' E 120°50'812.6
2017-May-19 16:51N 38°35' E 120°39'719.7
2017-May-19 16:30N 38°36' E 120°31'1020.2
2017-May-19 16:00N 38°37' E 120°18'1020.2
2017-May-19 15:30N 38°38' E 120°05'1020.1
2017-May-19 15:00N 38°39' E 119°52'1020.1
2017-May-19 14:30N 38°40' E 119°39'71 2.8
2017-May-18 12:56N 38°31' E 121°09'817.6
2017-May-18 12:28N 38°28' E 121°19'817.7
2017-May-18 12:00N 38°23' E 121°28'  

Dump ship's entire track history